sensor_id;sensor_type;location;lat;lon;timestamp;P1;durP1;ratioP1;P2;durP2;ratioP2
76405;SDS011;65234;50.044;19.258;2023-01-15T00:01:43;37.40;;;35.65;;
76405;SDS011;65234;50.044;19.258;2023-01-15T00:04:10;38.40;;;36.50;;
76405;SDS011;65234;50.044;19.258;2023-01-15T00:06:37;41.22;;;39.05;;
76405;SDS011;65234;50.044;19.258;2023-01-15T00:09:04;39.65;;;37.75;;
76405;SDS011;65234;50.044;19.258;2023-01-15T00:11:32;40.08;;;38.13;;
76405;SDS011;65234;50.044;19.258;2023-01-15T00:13:58;38.63;;;36.78;;
76405;SDS011;65234;50.044;19.258;2023-01-15T00:16:24;39.97;;;37.72;;
76405;SDS011;65234;50.044;19.258;2023-01-15T00:18:51;42.88;;;40.53;;
76405;SDS011;65234;50.044;19.258;2023-01-15T00:21:18;41.85;;;39.72;;
76405;SDS011;65234;50.044;19.258;2023-01-15T00:23:44;41.25;;;39.20;;
76405;SDS011;65234;50.044;19.258;2023-01-15T00:26:11;42.85;;;40.65;;
76405;SDS011;65234;50.044;19.258;2023-01-15T00:28:40;41.13;;;39.13;;
76405;SDS011;65234;50.044;19.258;2023-01-15T00:31:06;42.80;;;40.47;;
76405;SDS011;65234;50.044;19.258;2023-01-15T00:33:32;42.25;;;40.13;;
76405;SDS011;65234;50.044;19.258;2023-01-15T00:35:57;44.22;;;41.28;;
76405;SDS011;65234;50.044;19.258;2023-01-15T00:38:23;42.97;;;41.00;;
76405;SDS011;65234;50.044;19.258;2023-01-15T00:40:49;41.22;;;39.15;;
76405;SDS011;65234;50.044;19.258;2023-01-15T00:43:14;41.28;;;39.38;;
76405;SDS011;65234;50.044;19.258;2023-01-15T00:45:42;44.65;;;42.58;;
76405;SDS011;65234;50.044;19.258;2023-01-15T00:48:08;42.22;;;40.28;;
76405;SDS011;65234;50.044;19.258;2023-01-15T00:50:34;45.03;;;42.38;;
76405;SDS011;65234;50.044;19.258;2023-01-15T00:52:59;45.22;;;42.92;;
76405;SDS011;65234;50.044;19.258;2023-01-15T00:55:25;43.38;;;41.38;;
76405;SDS011;65234;50.044;19.258;2023-01-15T00:57:51;45.15;;;43.03;;
76405;SDS011;65234;50.044;19.258;2023-01-15T01:00:17;45.38;;;43.28;;
76405;SDS011;65234;50.044;19.258;2023-01-15T01:02:44;48.53;;;46.00;;
76405;SDS011;65234;50.044;19.258;2023-01-15T01:05:10;46.38;;;43.83;;
76405;SDS011;65234;50.044;19.258;2023-01-15T01:07:35;44.75;;;42.72;;
76405;SDS011;65234;50.044;19.258;2023-01-15T01:10:01;48.92;;;46.63;;
76405;SDS011;65234;50.044;19.258;2023-01-15T01:12:27;45.60;;;43.35;;
76405;SDS011;65234;50.044;19.258;2023-01-15T01:14:53;46.10;;;43.90;;
76405;SDS011;65234;50.044;19.258;2023-01-15T01:17:18;50.10;;;47.80;;
76405;SDS011;65234;50.044;19.258;2023-01-15T01:19:45;48.55;;;45.85;;
76405;SDS011;65234;50.044;19.258;2023-01-15T01:22:11;50.53;;;48.13;;
76405;SDS011;65234;50.044;19.258;2023-01-15T01:24:37;44.65;;;42.55;;
76405;SDS011;65234;50.044;19.258;2023-01-15T01:27:02;46.53;;;44.33;;
76405;SDS011;65234;50.044;19.258;2023-01-15T01:29:28;48.38;;;45.90;;
76405;SDS011;65234;50.044;19.258;2023-01-15T01:31:54;49.88;;;47.28;;
76405;SDS011;65234;50.044;19.258;2023-01-15T01:34:20;49.70;;;47.10;;
76405;SDS011;65234;50.044;19.258;2023-01-15T01:36:47;44.58;;;42.53;;
76405;SDS011;65234;50.044;19.258;2023-01-15T01:39:13;50.20;;;47.75;;
76405;SDS011;65234;50.044;19.258;2023-01-15T01:41:40;49.88;;;47.55;;
76405;SDS011;65234;50.044;19.258;2023-01-15T01:44:53;48.40;;;45.88;;
76405;SDS011;65234;50.044;19.258;2023-01-15T01:47:11;48.55;;;45.95;;
76405;SDS011;65234;50.044;19.258;2023-01-15T01:49:40;47.53;;;45.22;;
76405;SDS011;65234;50.044;19.258;2023-01-15T01:52:10;46.60;;;44.30;;
76405;SDS011;65234;50.044;19.258;2023-01-15T01:54:40;48.75;;;46.55;;
76405;SDS011;65234;50.044;19.258;2023-01-15T01:57:08;48.17;;;45.88;;
76405;SDS011;65234;50.044;19.258;2023-01-15T01:59:34;50.00;;;47.30;;
76405;SDS011;65234;50.044;19.258;2023-01-15T02:02:02;50.00;;;47.60;;
76405;SDS011;65234;50.044;19.258;2023-01-15T02:04:28;47.53;;;45.13;;
76405;SDS011;65234;50.044;19.258;2023-01-15T02:06:54;47.88;;;45.55;;
76405;SDS011;65234;50.044;19.258;2023-01-15T02:09:24;47.35;;;45.17;;
76405;SDS011;65234;50.044;19.258;2023-01-15T02:11:50;47.35;;;45.05;;
76405;SDS011;65234;50.044;19.258;2023-01-15T02:14:21;50.28;;;47.83;;
76405;SDS011;65234;50.044;19.258;2023-01-15T02:16:55;46.22;;;44.00;;
76405;SDS011;65234;50.044;19.258;2023-01-15T02:19:29;48.92;;;46.35;;
76405;SDS011;65234;50.044;19.258;2023-01-15T02:22:08;47.88;;;45.38;;
76405;SDS011;65234;50.044;19.258;2023-01-15T02:24:42;46.92;;;44.53;;
76405;SDS011;65234;50.044;19.258;2023-01-15T02:27:26;50.90;;;47.75;;
76405;SDS011;65234;50.044;19.258;2023-01-15T02:29:54;47.40;;;44.60;;
76405;SDS011;65234;50.044;19.258;2023-01-15T02:32:26;48.80;;;46.35;;
76405;SDS011;65234;50.044;19.258;2023-01-15T02:34:57;47.47;;;45.28;;
76405;SDS011;65234;50.044;19.258;2023-01-15T02:37:26;49.83;;;47.42;;
76405;SDS011;65234;50.044;19.258;2023-01-15T02:39:55;50.13;;;47.35;;
76405;SDS011;65234;50.044;19.258;2023-01-15T02:42:24;50.05;;;47.60;;
76405;SDS011;65234;50.044;19.258;2023-01-15T02:44:54;47.97;;;45.70;;
76405;SDS011;65234;50.044;19.258;2023-01-15T02:47:24;48.80;;;45.95;;
76405;SDS011;65234;50.044;19.258;2023-01-15T02:49:53;51.92;;;49.03;;
76405;SDS011;65234;50.044;19.258;2023-01-15T02:52:23;49.63;;;47.28;;
76405;SDS011;65234;50.044;19.258;2023-01-15T02:54:52;51.40;;;48.95;;
76405;SDS011;65234;50.044;19.258;2023-01-15T02:57:21;48.78;;;46.58;;
76405;SDS011;65234;50.044;19.258;2023-01-15T02:59:53;49.38;;;46.90;;
76405;SDS011;65234;50.044;19.258;2023-01-15T03:02:22;52.05;;;49.47;;
76405;SDS011;65234;50.044;19.258;2023-01-15T03:04:54;49.92;;;47.65;;
76405;SDS011;65234;50.044;19.258;2023-01-15T03:07:25;50.63;;;48.28;;
76405;SDS011;65234;50.044;19.258;2023-01-15T03:09:56;52.28;;;49.88;;
76405;SDS011;65234;50.044;19.258;2023-01-15T03:12:23;52.50;;;49.83;;
76405;SDS011;65234;50.044;19.258;2023-01-15T03:14:55;49.70;;;47.28;;
76405;SDS011;65234;50.044;19.258;2023-01-15T03:17:32;51.03;;;48.70;;
76405;SDS011;65234;50.044;19.258;2023-01-15T03:20:04;51.95;;;49.33;;
76405;SDS011;65234;50.044;19.258;2023-01-15T03:22:35;53.92;;;51.33;;
76405;SDS011;65234;50.044;19.258;2023-01-15T03:25:04;52.25;;;49.80;;
76405;SDS011;65234;50.044;19.258;2023-01-15T03:27:33;53.67;;;51.05;;
76405;SDS011;65234;50.044;19.258;2023-01-15T03:30:04;54.03;;;51.40;;
76405;SDS011;65234;50.044;19.258;2023-01-15T03:32:31;54.72;;;52.05;;
76405;SDS011;65234;50.044;19.258;2023-01-15T03:34:58;55.50;;;52.80;;
76405;SDS011;65234;50.044;19.258;2023-01-15T03:37:24;52.47;;;50.00;;
76405;SDS011;65234;50.044;19.258;2023-01-15T03:39:51;53.75;;;50.95;;
76405;SDS011;65234;50.044;19.258;2023-01-15T03:42:20;56.22;;;53.63;;
76405;SDS011;65234;50.044;19.258;2023-01-15T03:44:59;53.88;;;51.28;;
76405;SDS011;65234;50.044;19.258;2023-01-15T03:47:32;53.05;;;50.55;;
76405;SDS011;65234;50.044;19.258;2023-01-15T03:50:08;54.53;;;51.92;;
76405;SDS011;65234;50.044;19.258;2023-01-15T03:52:43;54.08;;;51.65;;
76405;SDS011;65234;50.044;19.258;2023-01-15T03:55:13;53.97;;;51.53;;
76405;SDS011;65234;50.044;19.258;2023-01-15T03:57:42;51.63;;;49.22;;
76405;SDS011;65234;50.044;19.258;2023-01-15T04:00:16;55.88;;;53.03;;
76405;SDS011;65234;50.044;19.258;2023-01-15T04:02:45;55.13;;;52.35;;
76405;SDS011;65234;50.044;19.258;2023-01-15T04:05:12;56.85;;;54.25;;
76405;SDS011;65234;50.044;19.258;2023-01-15T04:07:40;56.25;;;53.35;;
76405;SDS011;65234;50.044;19.258;2023-01-15T04:10:07;55.50;;;52.28;;
76405;SDS011;65234;50.044;19.258;2023-01-15T04:12:33;53.05;;;50.22;;
76405;SDS011;65234;50.044;19.258;2023-01-15T04:14:59;56.00;;;53.03;;
76405;SDS011;65234;50.044;19.258;2023-01-15T04:17:26;56.78;;;53.67;;
76405;SDS011;65234;50.044;19.258;2023-01-15T04:19:52;52.13;;;49.53;;
76405;SDS011;65234;50.044;19.258;2023-01-15T04:22:18;56.42;;;53.75;;
76405;SDS011;65234;50.044;19.258;2023-01-15T04:24:43;54.53;;;51.65;;
76405;SDS011;65234;50.044;19.258;2023-01-15T04:27:09;59.13;;;55.97;;
76405;SDS011;65234;50.044;19.258;2023-01-15T04:29:35;56.95;;;54.05;;
76405;SDS011;65234;50.044;19.258;2023-01-15T04:32:00;58.50;;;55.08;;
76405;SDS011;65234;50.044;19.258;2023-01-15T04:34:28;59.13;;;56.03;;
76405;SDS011;65234;50.044;19.258;2023-01-15T04:36:54;54.95;;;51.95;;
76405;SDS011;65234;50.044;19.258;2023-01-15T04:39:20;59.30;;;56.22;;
76405;SDS011;65234;50.044;19.258;2023-01-15T04:41:46;54.92;;;52.35;;
76405;SDS011;65234;50.044;19.258;2023-01-15T04:44:13;56.42;;;53.78;;
76405;SDS011;65234;50.044;19.258;2023-01-15T04:46:39;57.33;;;54.53;;
76405;SDS011;65234;50.044;19.258;2023-01-15T04:49:07;56.50;;;53.90;;
76405;SDS011;65234;50.044;19.258;2023-01-15T04:51:36;55.22;;;52.63;;
76405;SDS011;65234;50.044;19.258;2023-01-15T04:54:02;59.30;;;56.53;;
76405;SDS011;65234;50.044;19.258;2023-01-15T04:56:28;56.75;;;54.00;;
76405;SDS011;65234;50.044;19.258;2023-01-15T04:58:54;60.70;;;57.92;;
76405;SDS011;65234;50.044;19.258;2023-01-15T05:01:20;57.20;;;54.42;;
76405;SDS011;65234;50.044;19.258;2023-01-15T05:03:46;57.60;;;54.95;;
76405;SDS011;65234;50.044;19.258;2023-01-15T05:06:11;57.35;;;54.72;;
76405;SDS011;65234;50.044;19.258;2023-01-15T05:08:39;58.92;;;55.90;;
76405;SDS011;65234;50.044;19.258;2023-01-15T05:11:05;57.53;;;54.78;;
76405;SDS011;65234;50.044;19.258;2023-01-15T05:13:32;55.80;;;53.05;;
76405;SDS011;65234;50.044;19.258;2023-01-15T05:16:05;58.28;;;55.28;;
76405;SDS011;65234;50.044;19.258;2023-01-15T05:18:32;58.25;;;55.42;;
76405;SDS011;65234;50.044;19.258;2023-01-15T05:20:58;56.60;;;54.00;;
76405;SDS011;65234;50.044;19.258;2023-01-15T05:23:24;58.15;;;55.33;;
76405;SDS011;65234;50.044;19.258;2023-01-15T05:25:51;57.03;;;54.15;;
76405;SDS011;65234;50.044;19.258;2023-01-15T05:28:16;58.40;;;55.60;;
76405;SDS011;65234;50.044;19.258;2023-01-15T05:30:42;56.20;;;53.50;;
76405;SDS011;65234;50.044;19.258;2023-01-15T05:33:08;59.25;;;56.17;;
76405;SDS011;65234;50.044;19.258;2023-01-15T05:35:33;59.28;;;55.92;;
76405;SDS011;65234;50.044;19.258;2023-01-15T05:37:59;63.65;;;59.35;;
76405;SDS011;65234;50.044;19.258;2023-01-15T05:40:25;67.60;;;61.80;;
76405;SDS011;65234;50.044;19.258;2023-01-15T05:42:52;62.35;;;58.00;;
76405;SDS011;65234;50.044;19.258;2023-01-15T05:45:17;61.25;;;56.72;;
76405;SDS011;65234;50.044;19.258;2023-01-15T05:47:43;59.70;;;55.63;;
76405;SDS011;65234;50.044;19.258;2023-01-15T05:50:09;56.22;;;53.22;;
76405;SDS011;65234;50.044;19.258;2023-01-15T05:52:35;58.85;;;54.85;;
76405;SDS011;65234;50.044;19.258;2023-01-15T05:55:01;61.42;;;56.72;;
76405;SDS011;65234;50.044;19.258;2023-01-15T05:57:27;62.50;;;58.20;;
76405;SDS011;65234;50.044;19.258;2023-01-15T05:59:54;59.08;;;55.78;;
76405;SDS011;65234;50.044;19.258;2023-01-15T06:02:19;53.97;;;51.10;;
76405;SDS011;65234;50.044;19.258;2023-01-15T06:04:45;54.85;;;52.10;;
76405;SDS011;65234;50.044;19.258;2023-01-15T06:07:11;53.28;;;50.65;;
76405;SDS011;65234;50.044;19.258;2023-01-15T06:09:37;55.72;;;52.72;;
76405;SDS011;65234;50.044;19.258;2023-01-15T06:12:03;54.92;;;51.67;;
76405;SDS011;65234;50.044;19.258;2023-01-15T06:14:29;55.40;;;52.47;;
76405;SDS011;65234;50.044;19.258;2023-01-15T06:16:56;50.70;;;47.83;;
76405;SDS011;65234;50.044;19.258;2023-01-15T06:19:22;53.88;;;51.05;;
76405;SDS011;65234;50.044;19.258;2023-01-15T06:21:48;55.97;;;52.88;;
76405;SDS011;65234;50.044;19.258;2023-01-15T06:24:13;57.45;;;53.92;;
76405;SDS011;65234;50.044;19.258;2023-01-15T06:26:39;53.03;;;49.95;;
76405;SDS011;65234;50.044;19.258;2023-01-15T06:29:05;53.28;;;50.03;;
76405;SDS011;65234;50.044;19.258;2023-01-15T06:31:31;55.53;;;52.45;;
76405;SDS011;65234;50.044;19.258;2023-01-15T06:33:58;50.15;;;47.50;;
76405;SDS011;65234;50.044;19.258;2023-01-15T06:36:24;52.03;;;49.20;;
76405;SDS011;65234;50.044;19.258;2023-01-15T06:38:50;55.17;;;52.25;;
76405;SDS011;65234;50.044;19.258;2023-01-15T06:41:17;51.97;;;49.45;;
76405;SDS011;65234;50.044;19.258;2023-01-15T06:43:44;52.80;;;49.78;;
76405;SDS011;65234;50.044;19.258;2023-01-15T06:46:09;53.08;;;50.38;;
76405;SDS011;65234;50.044;19.258;2023-01-15T06:48:35;53.85;;;50.88;;
76405;SDS011;65234;50.044;19.258;2023-01-15T06:51:02;54.60;;;51.65;;
76405;SDS011;65234;50.044;19.258;2023-01-15T06:53:28;55.25;;;51.40;;
76405;SDS011;65234;50.044;19.258;2023-01-15T06:55:54;51.92;;;49.20;;
76405;SDS011;65234;50.044;19.258;2023-01-15T06:58:19;56.60;;;53.42;;
76405;SDS011;65234;50.044;19.258;2023-01-15T07:00:45;47.80;;;45.10;;
76405;SDS011;65234;50.044;19.258;2023-01-15T07:03:10;52.45;;;49.72;;
76405;SDS011;65234;50.044;19.258;2023-01-15T07:05:36;57.50;;;54.33;;
76405;SDS011;65234;50.044;19.258;2023-01-15T07:08:04;55.53;;;52.00;;
76405;SDS011;65234;50.044;19.258;2023-01-15T07:10:30;53.45;;;49.97;;
76405;SDS011;65234;50.044;19.258;2023-01-15T07:12:57;52.83;;;49.85;;
76405;SDS011;65234;50.044;19.258;2023-01-15T07:15:23;55.35;;;52.35;;
76405;SDS011;65234;50.044;19.258;2023-01-15T07:17:52;53.78;;;50.97;;
76405;SDS011;65234;50.044;19.258;2023-01-15T07:20:18;53.83;;;50.90;;
76405;SDS011;65234;50.044;19.258;2023-01-15T07:22:44;56.38;;;53.03;;
76405;SDS011;65234;50.044;19.258;2023-01-15T07:25:14;52.75;;;49.70;;
76405;SDS011;65234;50.044;19.258;2023-01-15T07:27:40;52.95;;;50.15;;
76405;SDS011;65234;50.044;19.258;2023-01-15T07:30:06;55.10;;;51.47;;
76405;SDS011;65234;50.044;19.258;2023-01-15T07:32:33;54.85;;;51.95;;
76405;SDS011;65234;50.044;19.258;2023-01-15T07:34:59;56.30;;;52.83;;
76405;SDS011;65234;50.044;19.258;2023-01-15T07:37:24;53.83;;;51.00;;
76405;SDS011;65234;50.044;19.258;2023-01-15T07:39:50;53.13;;;50.53;;
76405;SDS011;65234;50.044;19.258;2023-01-15T07:42:17;53.53;;;50.22;;
76405;SDS011;65234;50.044;19.258;2023-01-15T07:44:43;55.38;;;52.33;;
76405;SDS011;65234;50.044;19.258;2023-01-15T07:47:13;56.40;;;53.30;;
76405;SDS011;65234;50.044;19.258;2023-01-15T07:49:42;52.63;;;50.07;;
76405;SDS011;65234;50.044;19.258;2023-01-15T07:52:08;50.33;;;47.83;;
76405;SDS011;65234;50.044;19.258;2023-01-15T07:54:34;51.83;;;49.38;;
76405;SDS011;65234;50.044;19.258;2023-01-15T07:56:59;55.60;;;52.60;;
76405;SDS011;65234;50.044;19.258;2023-01-15T07:59:27;51.45;;;49.05;;
76405;SDS011;65234;50.044;19.258;2023-01-15T08:01:52;53.08;;;50.45;;
76405;SDS011;65234;50.044;19.258;2023-01-15T08:04:18;54.05;;;51.50;;
76405;SDS011;65234;50.044;19.258;2023-01-15T08:06:44;53.47;;;50.97;;
76405;SDS011;65234;50.044;19.258;2023-01-15T08:09:10;56.85;;;53.25;;
76405;SDS011;65234;50.044;19.258;2023-01-15T08:11:35;54.60;;;51.80;;
76405;SDS011;65234;50.044;19.258;2023-01-15T08:14:01;56.42;;;53.53;;
76405;SDS011;65234;50.044;19.258;2023-01-15T08:16:28;56.35;;;53.38;;
76405;SDS011;65234;50.044;19.258;2023-01-15T08:18:54;60.92;;;57.15;;
76405;SDS011;65234;50.044;19.258;2023-01-15T08:21:19;57.65;;;53.85;;
76405;SDS011;65234;50.044;19.258;2023-01-15T08:23:45;57.90;;;55.00;;
76405;SDS011;65234;50.044;19.258;2023-01-15T08:26:11;60.50;;;57.20;;
76405;SDS011;65234;50.044;19.258;2023-01-15T08:28:37;56.47;;;53.45;;
76405;SDS011;65234;50.044;19.258;2023-01-15T08:31:03;57.05;;;54.22;;
76405;SDS011;65234;50.044;19.258;2023-01-15T08:33:31;58.10;;;55.15;;
76405;SDS011;65234;50.044;19.258;2023-01-15T08:35:56;60.67;;;57.38;;
76405;SDS011;65234;50.044;19.258;2023-01-15T08:38:22;61.97;;;57.75;;
76405;SDS011;65234;50.044;19.258;2023-01-15T08:40:51;57.92;;;54.60;;
76405;SDS011;65234;50.044;19.258;2023-01-15T08:43:17;61.80;;;57.90;;
76405;SDS011;65234;50.044;19.258;2023-01-15T08:45:43;60.78;;;57.10;;
76405;SDS011;65234;50.044;19.258;2023-01-15T08:48:08;60.13;;;56.38;;
76405;SDS011;65234;50.044;19.258;2023-01-15T08:50:35;59.47;;;56.17;;
76405;SDS011;65234;50.044;19.258;2023-01-15T08:53:01;63.90;;;60.08;;
76405;SDS011;65234;50.044;19.258;2023-01-15T08:55:27;58.88;;;54.75;;
76405;SDS011;65234;50.044;19.258;2023-01-15T08:57:52;60.05;;;56.40;;
76405;SDS011;65234;50.044;19.258;2023-01-15T09:00:18;62.50;;;58.38;;
76405;SDS011;65234;50.044;19.258;2023-01-15T09:02:44;66.47;;;61.28;;
76405;SDS011;65234;50.044;19.258;2023-01-15T09:05:10;60.55;;;57.35;;
76405;SDS011;65234;50.044;19.258;2023-01-15T09:07:37;61.35;;;57.45;;
76405;SDS011;65234;50.044;19.258;2023-01-15T09:12:54;58.22;;;55.20;;
76405;SDS011;65234;50.044;19.258;2023-01-15T09:15:22;59.60;;;56.65;;
76405;SDS011;65234;50.044;19.258;2023-01-15T09:17:48;57.97;;;55.08;;
76405;SDS011;65234;50.044;19.258;2023-01-15T09:20:13;55.05;;;52.50;;
76405;SDS011;65234;50.044;19.258;2023-01-15T09:22:40;61.33;;;57.92;;
76405;SDS011;65234;50.044;19.258;2023-01-15T09:25:06;58.25;;;55.28;;
76405;SDS011;65234;50.044;19.258;2023-01-15T09:27:33;60.92;;;57.58;;
76405;SDS011;65234;50.044;19.258;2023-01-15T09:29:58;58.63;;;55.80;;
76405;SDS011;65234;50.044;19.258;2023-01-15T09:32:24;59.92;;;56.72;;
76405;SDS011;65234;50.044;19.258;2023-01-15T09:34:50;60.03;;;57.13;;
76405;SDS011;65234;50.044;19.258;2023-01-15T09:37:16;60.45;;;57.40;;
76405;SDS011;65234;50.044;19.258;2023-01-15T09:39:43;60.75;;;57.65;;
76405;SDS011;65234;50.044;19.258;2023-01-15T09:42:12;59.45;;;56.55;;
76405;SDS011;65234;50.044;19.258;2023-01-15T09:44:58;60.80;;;57.77;;
76405;SDS011;65234;50.044;19.258;2023-01-15T09:47:38;60.83;;;57.35;;
76405;SDS011;65234;50.044;19.258;2023-01-15T09:50:15;65.70;;;62.22;;
76405;SDS011;65234;50.044;19.258;2023-01-15T09:52:53;63.03;;;59.15;;
76405;SDS011;65234;50.044;19.258;2023-01-15T09:55:33;63.92;;;60.40;;
76405;SDS011;65234;50.044;19.258;2023-01-15T09:58:07;66.28;;;62.55;;
76405;SDS011;65234;50.044;19.258;2023-01-15T10:00:37;63.05;;;59.78;;
76405;SDS011;65234;50.044;19.258;2023-01-15T10:03:04;65.80;;;62.65;;
76405;SDS011;65234;50.044;19.258;2023-01-15T10:05:37;67.13;;;62.80;;
76405;SDS011;65234;50.044;19.258;2023-01-15T10:08:10;70.73;;;66.20;;
76405;SDS011;65234;50.044;19.258;2023-01-15T10:10:43;68.45;;;64.10;;
76405;SDS011;65234;50.044;19.258;2023-01-15T10:13:12;68.32;;;64.45;;
76405;SDS011;65234;50.044;19.258;2023-01-15T10:15:44;68.22;;;64.63;;
76405;SDS011;65234;50.044;19.258;2023-01-15T10:18:13;69.50;;;65.10;;
76405;SDS011;65234;50.044;19.258;2023-01-15T10:20:50;66.35;;;63.15;;
76405;SDS011;65234;50.044;19.258;2023-01-15T10:23:32;68.15;;;64.45;;
76405;SDS011;65234;50.044;19.258;2023-01-15T10:26:01;68.45;;;64.75;;
76405;SDS011;65234;50.044;19.258;2023-01-15T10:28:35;65.95;;;62.45;;
76405;SDS011;65234;50.044;19.258;2023-01-15T10:31:16;61.38;;;58.42;;
76405;SDS011;65234;50.044;19.258;2023-01-15T10:33:50;67.97;;;64.50;;
76405;SDS011;65234;50.044;19.258;2023-01-15T10:36:27;64.72;;;61.75;;
76405;SDS011;65234;50.044;19.258;2023-01-15T10:39:00;66.18;;;62.88;;
76405;SDS011;65234;50.044;19.258;2023-01-15T10:41:41;65.15;;;62.05;;
76405;SDS011;65234;50.044;19.258;2023-01-15T10:44:17;68.90;;;65.10;;
76405;SDS011;65234;50.044;19.258;2023-01-15T10:46:50;66.00;;;62.80;;
76405;SDS011;65234;50.044;19.258;2023-01-15T10:49:20;65.97;;;62.63;;
76405;SDS011;65234;50.044;19.258;2023-01-15T10:51:47;66.82;;;63.42;;
76405;SDS011;65234;50.044;19.258;2023-01-15T10:54:20;69.10;;;65.75;;
76405;SDS011;65234;50.044;19.258;2023-01-15T10:56:53;67.45;;;63.70;;
76405;SDS011;65234;50.044;19.258;2023-01-15T10:59:26;71.28;;;67.53;;
76405;SDS011;65234;50.044;19.258;2023-01-15T11:02:00;68.60;;;64.90;;
76405;SDS011;65234;50.044;19.258;2023-01-15T11:04:35;73.93;;;69.20;;
76405;SDS011;65234;50.044;19.258;2023-01-15T11:07:01;78.82;;;73.38;;
76405;SDS011;65234;50.044;19.258;2023-01-15T11:09:27;76.95;;;71.43;;
76405;SDS011;65234;50.044;19.258;2023-01-15T11:11:56;78.25;;;73.15;;
76405;SDS011;65234;50.044;19.258;2023-01-15T11:17:03;63.92;;;60.05;;
76405;SDS011;65234;50.044;19.258;2023-01-15T11:19:39;67.93;;;64.25;;
76405;SDS011;65234;50.044;19.258;2023-01-15T11:22:07;66.47;;;63.08;;
76405;SDS011;65234;50.044;19.258;2023-01-15T11:24:36;68.47;;;65.18;;
76405;SDS011;65234;50.044;19.258;2023-01-15T11:27:12;68.70;;;65.10;;
76405;SDS011;65234;50.044;19.258;2023-01-15T11:29:57;64.63;;;61.33;;
76405;SDS011;65234;50.044;19.258;2023-01-15T11:32:26;66.53;;;62.90;;
76405;SDS011;65234;50.044;19.258;2023-01-15T11:34:54;65.20;;;62.13;;
76405;SDS011;65234;50.044;19.258;2023-01-15T11:37:21;66.70;;;63.53;;
76405;SDS011;65234;50.044;19.258;2023-01-15T11:39:53;65.03;;;61.63;;
76405;SDS011;65234;50.044;19.258;2023-01-15T11:42:21;68.05;;;64.45;;
76405;SDS011;65234;50.044;19.258;2023-01-15T11:44:51;66.13;;;62.83;;
76405;SDS011;65234;50.044;19.258;2023-01-15T11:47:18;65.05;;;62.03;;
76405;SDS011;65234;50.044;19.258;2023-01-15T11:49:48;67.20;;;63.95;;
76405;SDS011;65234;50.044;19.258;2023-01-15T11:52:16;64.50;;;61.45;;
76405;SDS011;65234;50.044;19.258;2023-01-15T11:54:47;63.67;;;60.72;;
76405;SDS011;65234;50.044;19.258;2023-01-15T11:57:23;60.72;;;57.63;;
76405;SDS011;65234;50.044;19.258;2023-01-15T11:59:52;65.47;;;62.17;;
76405;SDS011;65234;50.044;19.258;2023-01-15T12:02:20;65.57;;;62.08;;
76405;SDS011;65234;50.044;19.258;2023-01-15T12:04:57;63.13;;;59.72;;
76405;SDS011;65234;50.044;19.258;2023-01-15T12:07:25;64.75;;;61.55;;
76405;SDS011;65234;50.044;19.258;2023-01-15T12:12:48;65.32;;;62.17;;
76405;SDS011;65234;50.044;19.258;2023-01-15T12:15:25;65.53;;;62.25;;
76405;SDS011;65234;50.044;19.258;2023-01-15T12:21:15;60.75;;;57.38;;
76405;SDS011;65234;50.044;19.258;2023-01-15T12:24:01;61.58;;;58.58;;
76405;SDS011;65234;50.044;19.258;2023-01-15T12:26:50;61.38;;;58.25;;
76405;SDS011;65234;50.044;19.258;2023-01-15T12:29:26;63.40;;;60.40;;
76405;SDS011;65234;50.044;19.258;2023-01-15T12:31:57;64.40;;;61.30;;
76405;SDS011;65234;50.044;19.258;2023-01-15T12:34:28;62.83;;;59.92;;
76405;SDS011;65234;50.044;19.258;2023-01-15T12:37:04;62.30;;;59.17;;
76405;SDS011;65234;50.044;19.258;2023-01-15T12:39:35;62.78;;;59.75;;
76405;SDS011;65234;50.044;19.258;2023-01-15T12:42:11;62.20;;;59.20;;
76405;SDS011;65234;50.044;19.258;2023-01-15T12:44:43;62.50;;;59.15;;
76405;SDS011;65234;50.044;19.258;2023-01-15T12:47:13;64.15;;;61.08;;
76405;SDS011;65234;50.044;19.258;2023-01-15T12:49:45;62.20;;;59.00;;
76405;SDS011;65234;50.044;19.258;2023-01-15T12:52:17;65.65;;;62.08;;
76405;SDS011;65234;50.044;19.258;2023-01-15T12:54:47;62.72;;;59.72;;
76405;SDS011;65234;50.044;19.258;2023-01-15T12:57:19;64.95;;;61.65;;
76405;SDS011;65234;50.044;19.258;2023-01-15T12:59:56;64.53;;;60.88;;
76405;SDS011;65234;50.044;19.258;2023-01-15T13:02:27;61.92;;;58.90;;
76405;SDS011;65234;50.044;19.258;2023-01-15T13:04:58;66.72;;;63.15;;
76405;SDS011;65234;50.044;19.258;2023-01-15T13:07:33;65.93;;;62.78;;
76405;SDS011;65234;50.044;19.258;2023-01-15T13:10:02;66.50;;;63.13;;
76405;SDS011;65234;50.044;19.258;2023-01-15T13:12:30;66.53;;;63.35;;
76405;SDS011;65234;50.044;19.258;2023-01-15T13:14:58;66.55;;;63.17;;
76405;SDS011;65234;50.044;19.258;2023-01-15T13:17:28;66.07;;;62.75;;
76405;SDS011;65234;50.044;19.258;2023-01-15T13:20:11;68.32;;;64.47;;
76405;SDS011;65234;50.044;19.258;2023-01-15T13:22:49;69.20;;;65.57;;
76405;SDS011;65234;50.044;19.258;2023-01-15T13:25:22;69.22;;;65.82;;
76405;SDS011;65234;50.044;19.258;2023-01-15T13:28:18;68.03;;;64.45;;
76405;SDS011;65234;50.044;19.258;2023-01-15T13:30:58;71.43;;;67.43;;
76405;SDS011;65234;50.044;19.258;2023-01-15T13:33:35;67.22;;;63.75;;
76405;SDS011;65234;50.044;19.258;2023-01-15T13:36:08;68.65;;;65.43;;
76405;SDS011;65234;50.044;19.258;2023-01-15T13:38:39;68.95;;;65.57;;
76405;SDS011;65234;50.044;19.258;2023-01-15T13:41:07;71.30;;;66.85;;
76405;SDS011;65234;50.044;19.258;2023-01-15T13:43:33;66.93;;;63.72;;
76405;SDS011;65234;50.044;19.258;2023-01-15T13:46:03;66.93;;;63.58;;
76405;SDS011;65234;50.044;19.258;2023-01-15T13:48:32;70.75;;;67.20;;
76405;SDS011;65234;50.044;19.258;2023-01-15T13:51:00;69.22;;;65.78;;
76405;SDS011;65234;50.044;19.258;2023-01-15T13:53:29;70.07;;;66.60;;
76405;SDS011;65234;50.044;19.258;2023-01-15T13:55:58;70.63;;;66.78;;
76405;SDS011;65234;50.044;19.258;2023-01-15T13:58:27;69.43;;;65.88;;
76405;SDS011;65234;50.044;19.258;2023-01-15T14:01:00;67.45;;;64.00;;
76405;SDS011;65234;50.044;19.258;2023-01-15T14:03:30;68.45;;;65.05;;
76405;SDS011;65234;50.044;19.258;2023-01-15T14:05:57;69.13;;;65.25;;
76405;SDS011;65234;50.044;19.258;2023-01-15T14:08:26;67.50;;;63.80;;
76405;SDS011;65234;50.044;19.258;2023-01-15T14:11:00;66.25;;;62.95;;
76405;SDS011;65234;50.044;19.258;2023-01-15T14:13:38;67.32;;;63.78;;
76405;SDS011;65234;50.044;19.258;2023-01-15T14:16:19;65.55;;;62.38;;
76405;SDS011;65234;50.044;19.258;2023-01-15T14:18:56;65.78;;;62.28;;
76405;SDS011;65234;50.044;19.258;2023-01-15T14:21:47;64.90;;;61.45;;
76405;SDS011;65234;50.044;19.258;2023-01-15T14:30:12;62.85;;;59.38;;
76405;SDS011;65234;50.044;19.258;2023-01-15T14:32:58;63.72;;;60.67;;
76405;SDS011;65234;50.044;19.258;2023-01-15T14:35:33;64.32;;;61.03;;
76405;SDS011;65234;50.044;19.258;2023-01-15T14:38:02;64.70;;;61.55;;